sensor_id;sensor_type;location;lat;lon;timestamp;temperature;humidity
2212;DHT22;48849;48.758;9.158;2024-01-10T00:00:20;1.20;99.90
2212;DHT22;48849;48.758;9.158;2024-01-10T00:02:48;1.20;99.90
2212;DHT22;48849;48.758;9.158;2024-01-10T00:05:15;1.30;99.90
2212;DHT22;48849;48.758;9.158;2024-01-10T00:07:42;1.30;99.90
2212;DHT22;48849;48.758;9.158;2024-01-10T00:10:09;1.30;99.90
2212;DHT22;48849;48.758;9.158;2024-01-10T00:12:36;1.30;99.90
2212;DHT22;48849;48.758;9.158;2024-01-10T00:15:04;1.40;99.90
2212;DHT22;48849;48.758;9.158;2024-01-10T00:17:31;1.40;99.90
2212;DHT22;48849;48.758;9.158;2024-01-10T00:19:59;1.40;99.90
2212;DHT22;48849;48.758;9.158;2024-01-10T00:22:26;1.40;99.90
2212;DHT22;48849;48.758;9.158;2024-01-10T00:24:52;1.30;99.90
2212;DHT22;48849;48.758;9.158;2024-01-10T00:27:19;1.30;99.90
2212;DHT22;48849;48.758;9.158;2024-01-10T00:29:46;1.30;99.90
2212;DHT22;48849;48.758;9.158;2024-01-10T00:32:12;1.30;99.90
2212;DHT22;48849;48.758;9.158;2024-01-10T00:34:39;1.40;99.90
2212;DHT22;48849;48.758;9.158;2024-01-10T00:37:07;1.40;99.90
2212;DHT22;48849;48.758;9.158;2024-01-10T00:39:34;1.30;99.90
2212;DHT22;48849;48.758;9.158;2024-01-10T00:42:00;1.30;99.90
2212;DHT22;48849;48.758;9.158;2024-01-10T00:44:27;1.40;99.90
2212;DHT22;48849;48.758;9.158;2024-01-10T00:46:54;1.40;99.90
2212;DHT22;48849;48.758;9.158;2024-01-10T00:49:21;1.40;99.90
2212;DHT22;48849;48.758;9.158;2024-01-10T00:51:47;1.40;99.90
2212;DHT22;48849;48.758;9.158;2024-01-10T00:54:15;1.40;99.90
2212;DHT22;48849;48.758;9.158;2024-01-10T00:56:42;1.50;99.90
2212;DHT22;48849;48.758;9.158;2024-01-10T00:59:09;1.50;99.90
2212;DHT22;48849;48.758;9.158;2024-01-10T01:01:35;1.40;99.90
2212;DHT22;48849;48.758;9.158;2024-01-10T01:04:02;1.30;99.90
2212;DHT22;48849;48.758;9.158;2024-01-10T01:06:28;1.40;99.90
2212;DHT22;48849;48.758;9.158;2024-01-10T01:08:55;1.30;99.90
2212;DHT22;48849;48.758;9.158;2024-01-10T01:11:23;1.30;99.90
2212;DHT22;48849;48.758;9.158;2024-01-10T01:13:50;1.30;99.90
2212;DHT22;48849;48.758;9.158;2024-01-10T01:16:17;1.30;99.90
2212;DHT22;48849;48.758;9.158;2024-01-10T01:18:43;1.30;99.90
2212;DHT22;48849;48.758;9.158;2024-01-10T01:21:11;1.40;99.90
2212;DHT22;48849;48.758;9.158;2024-01-10T01:23:37;1.30;99.90
2212;DHT22;48849;48.758;9.158;2024-01-10T01:26:04;1.30;99.90
2212;DHT22;48849;48.758;9.158;2024-01-10T01:28:32;1.30;99.90
2212;DHT22;48849;48.758;9.158;2024-01-10T01:30:59;1.30;99.90
2212;DHT22;48849;48.758;9.158;2024-01-10T01:33:26;1.40;99.90
2212;DHT22;48849;48.758;9.158;2024-01-10T01:35:53;1.40;99.90
2212;DHT22;48849;48.758;9.158;2024-01-10T01:38:20;1.50;99.90
2212;DHT22;48849;48.758;9.158;2024-01-10T01:40:46;1.40;99.90
2212;DHT22;48849;48.758;9.158;2024-01-10T01:43:20;1.50;99.90
2212;DHT22;48849;48.758;9.158;2024-01-10T01:45:51;1.30;99.90
2212;DHT22;48849;48.758;9.158;2024-01-10T01:48:19;1.40;99.90
2212;DHT22;48849;48.758;9.158;2024-01-10T01:50:48;1.30;99.90
2212;DHT22;48849;48.758;9.158;2024-01-10T01:53:15;1.40;99.90
2212;DHT22;48849;48.758;9.158;2024-01-10T01:55:43;1.30;99.90
2212;DHT22;48849;48.758;9.158;2024-01-10T01:58:10;1.20;99.90
2212;DHT22;48849;48.758;9.158;2024-01-10T02:00:38;1.10;99.90
2212;DHT22;48849;48.758;9.158;2024-01-10T02:03:07;1.10;99.90
2212;DHT22;48849;48.758;9.158;2024-01-10T02:05:35;1.10;99.90
2212;DHT22;48849;48.758;9.158;2024-01-10T02:08:01;1.20;99.90
2212;DHT22;48849;48.758;9.158;2024-01-10T02:10:28;1.60;99.90
2212;DHT22;48849;48.758;9.158;2024-01-10T02:12:55;1.30;99.90
2212;DHT22;48849;48.758;9.158;2024-01-10T02:15:22;1.30;99.90
2212;DHT22;48849;48.758;9.158;2024-01-10T02:17:48;1.30;99.90
2212;DHT22;48849;48.758;9.158;2024-01-10T02:20:16;1.30;99.90
2212;DHT22;48849;48.758;9.158;2024-01-10T02:22:44;1.30;99.90
2212;DHT22;48849;48.758;9.158;2024-01-10T02:25:12;1.40;99.90
2212;DHT22;48849;48.758;9.158;2024-01-10T02:27:40;1.40;99.90
2212;DHT22;48849;48.758;9.158;2024-01-10T02:30:08;1.40;99.90
2212;DHT22;48849;48.758;9.158;2024-01-10T02:32:36;1.30;99.90
2212;DHT22;48849;48.758;9.158;2024-01-10T02:35:03;1.30;99.90
2212;DHT22;48849;48.758;9.158;2024-01-10T02:37:30;1.40;99.90
2212;DHT22;48849;48.758;9.158;2024-01-10T02:39:57;1.40;99.90
2212;DHT22;48849;48.758;9.158;2024-01-10T02:42:25;1.40;99.90
2212;DHT22;48849;48.758;9.158;2024-01-10T02:44:52;1.40;99.90
2212;DHT22;48849;48.758;9.158;2024-01-10T02:47:19;1.50;99.90
2212;DHT22;48849;48.758;9.158;2024-01-10T02:49:45;1.60;99.90
2212;DHT22;48849;48.758;9.158;2024-01-10T02:52:12;1.50;99.90
2212;DHT22;48849;48.758;9.158;2024-01-10T02:54:39;1.50;99.90
2212;DHT22;48849;48.758;9.158;2024-01-10T02:57:06;1.50;99.90
2212;DHT22;48849;48.758;9.158;2024-01-10T02:59:34;1.50;99.90
2212;DHT22;48849;48.758;9.158;2024-01-10T03:02:01;1.60;99.90
2212;DHT22;48849;48.758;9.158;2024-01-10T03:04:27;1.60;99.90
2212;DHT22;48849;48.758;9.158;2024-01-10T03:06:54;1.60;99.90
2212;DHT22;48849;48.758;9.158;2024-01-10T03:09:21;1.50;99.90
2212;DHT22;48849;48.758;9.158;2024-01-10T03:11:48;1.40;99.90
2212;DHT22;48849;48.758;9.158;2024-01-10T03:14:15;1.40;99.90
2212;DHT22;48849;48.758;9.158;2024-01-10T03:16:43;1.40;99.90
2212;DHT22;48849;48.758;9.158;2024-01-10T03:19:11;1.40;99.90
2212;DHT22;48849;48.758;9.158;2024-01-10T03:21:38;1.40;99.90
2212;DHT22;48849;48.758;9.158;2024-01-10T03:24:05;1.40;99.90
2212;DHT22;48849;48.758;9.158;2024-01-10T03:26:32;1.40;99.90
2212;DHT22;48849;48.758;9.158;2024-01-10T03:28:58;1.30;99.90
2212;DHT22;48849;48.758;9.158;2024-01-10T03:31:27;1.30;99.90
2212;DHT22;48849;48.758;9.158;2024-01-10T03:33:55;1.30;99.90
2212;DHT22;48849;48.758;9.158;2024-01-10T03:36:22;1.40;99.90
2212;DHT22;48849;48.758;9.158;2024-01-10T03:38:49;1.50;99.90
2212;DHT22;48849;48.758;9.158;2024-01-10T03:41:16;1.50;99.90
2212;DHT22;48849;48.758;9.158;2024-01-10T03:43:44;1.50;99.90
2212;DHT22;48849;48.758;9.158;2024-01-10T03:46:10;1.70;99.90
2212;DHT22;48849;48.758;9.158;2024-01-10T03:48:37;1.70;99.90
2212;DHT22;48849;48.758;9.158;2024-01-10T03:51:14;1.60;99.90
2212;DHT22;48849;48.758;9.158;2024-01-10T03:53:41;1.60;99.90
2212;DHT22;48849;48.758;9.158;2024-01-10T03:56:08;1.60;99.90
2212;DHT22;48849;48.758;9.158;2024-01-10T03:58:35;1.60;99.90
2212;DHT22;48849;48.758;9.158;2024-01-10T04:01:04;1.70;99.90
2212;DHT22;48849;48.758;9.158;2024-01-10T04:03:31;1.70;99.90
2212;DHT22;48849;48.758;9.158;2024-01-10T04:05:58;1.70;99.90
2212;DHT22;48849;48.758;9.158;2024-01-10T04:08:26;1.80;99.90
2212;DHT22;48849;48.758;9.158;2024-01-10T04:10:53;1.80;99.90
2212;DHT22;48849;48.758;9.158;2024-01-10T04:13:20;1.80;99.90
2212;DHT22;48849;48.758;9.158;2024-01-10T04:15:46;1.70;99.90
2212;DHT22;48849;48.758;9.158;2024-01-10T04:18:14;1.70;99.90
2212;DHT22;48849;48.758;9.158;2024-01-10T04:20:41;1.60;99.90
2212;DHT22;48849;48.758;9.158;2024-01-10T04:23:09;1.60;99.90
2212;DHT22;48849;48.758;9.158;2024-01-10T04:25:37;1.70;99.90
2212;DHT22;48849;48.758;9.158;2024-01-10T04:28:05;1.70;99.90
2212;DHT22;48849;48.758;9.158;2024-01-10T04:30:43;1.70;99.90
2212;DHT22;48849;48.758;9.158;2024-01-10T04:33:11;1.70;99.90
2212;DHT22;48849;48.758;9.158;2024-01-10T04:35:38;1.70;99.90
2212;DHT22;48849;48.758;9.158;2024-01-10T04:38:04;1.80;99.90
2212;DHT22;48849;48.758;9.158;2024-01-10T04:40:31;1.70;99.90
2212;DHT22;48849;48.758;9.158;2024-01-10T04:42:59;1.70;99.90
2212;DHT22;48849;48.758;9.158;2024-01-10T04:45:26;1.70;99.90
2212;DHT22;48849;48.758;9.158;2024-01-10T04:47:52;1.70;99.90
2212;DHT22;48849;48.758;9.158;2024-01-10T04:50:19;1.70;99.90
2212;DHT22;48849;48.758;9.158;2024-01-10T04:52:46;1.80;99.90
2212;DHT22;48849;48.758;9.158;2024-01-10T04:55:12;1.80;99.90
2212;DHT22;48849;48.758;9.158;2024-01-10T04:57:39;1.90;99.90
2212;DHT22;48849;48.758;9.158;2024-01-10T05:00:08;1.90;99.90
2212;DHT22;48849;48.758;9.158;2024-01-10T05:02:35;1.80;99.90
2212;DHT22;48849;48.758;9.158;2024-01-10T05:05:02;1.90;99.90
2212;DHT22;48849;48.758;9.158;2024-01-10T05:07:29;1.90;99.90
2212;DHT22;48849;48.758;9.158;2024-01-10T05:09:56;2.00;99.90
2212;DHT22;48849;48.758;9.158;2024-01-10T05:12:22;1.90;99.90
2212;DHT22;48849;48.758;9.158;2024-01-10T05:14:49;1.90;99.90
2212;DHT22;48849;48.758;9.158;2024-01-10T05:17:19;1.80;99.90
2212;DHT22;48849;48.758;9.158;2024-01-10T05:19:45;1.90;99.90
2212;DHT22;48849;48.758;9.158;2024-01-10T05:22:12;1.90;99.90
2212;DHT22;48849;48.758;9.158;2024-01-10T05:24:39;1.90;99.90
2212;DHT22;48849;48.758;9.158;2024-01-10T05:27:06;1.90;99.90
2212;DHT22;48849;48.758;9.158;2024-01-10T05:29:32;1.90;99.90
2212;DHT22;48849;48.758;9.158;2024-01-10T05:31:59;1.90;99.90
2212;DHT22;48849;48.758;9.158;2024-01-10T05:34:27;1.90;99.90
2212;DHT22;48849;48.758;9.158;2024-01-10T05:36:54;2.00;99.90
2212;DHT22;48849;48.758;9.158;2024-01-10T05:39:21;2.00;99.90
2212;DHT22;48849;48.758;9.158;2024-01-10T05:41:47;1.90;99.90
2212;DHT22;48849;48.758;9.158;2024-01-10T05:44:15;1.90;99.90
2212;DHT22;48849;48.758;9.158;2024-01-10T05:46:42;1.90;99.90
2212;DHT22;48849;48.758;9.158;2024-01-10T05:49:09;1.90;99.90
2212;DHT22;48849;48.758;9.158;2024-01-10T05:51:38;1.90;99.90
2212;DHT22;48849;48.758;9.158;2024-01-10T05:54:05;1.80;99.90
2212;DHT22;48849;48.758;9.158;2024-01-10T05:56:32;1.70;99.90
2212;DHT22;48849;48.758;9.158;2024-01-10T05:58:59;1.70;99.90
2212;DHT22;48849;48.758;9.158;2024-01-10T06:01:26;1.70;99.90
2212;DHT22;48849;48.758;9.158;2024-01-10T06:03:54;1.70;99.90
2212;DHT22;48849;48.758;9.158;2024-01-10T06:06:21;1.70;99.90
2212;DHT22;48849;48.758;9.158;2024-01-10T06:08:50;2.90;99.90
2212;DHT22;48849;48.758;9.158;2024-01-10T06:11:17;1.70;99.90
2212;DHT22;48849;48.758;9.158;2024-01-10T06:13:44;1.70;99.90
2212;DHT22;48849;48.758;9.158;2024-01-10T06:16:11;1.70;99.90
2212;DHT22;48849;48.758;9.158;2024-01-10T06:18:38;1.80;99.90
2212;DHT22;48849;48.758;9.158;2024-01-10T06:21:05;1.80;99.90
2212;DHT22;48849;48.758;9.158;2024-01-10T06:23:32;1.90;99.90
2212;DHT22;48849;48.758;9.158;2024-01-10T06:26:01;1.90;99.90
2212;DHT22;48849;48.758;9.158;2024-01-10T06:28:28;1.80;99.90
2212;DHT22;48849;48.758;9.158;2024-01-10T06:30:54;1.60;99.90
2212;DHT22;48849;48.758;9.158;2024-01-10T06:33:21;1.60;99.90
2212;DHT22;48849;48.758;9.158;2024-01-10T06:35:48;1.60;99.90
2212;DHT22;48849;48.758;9.158;2024-01-10T06:38:15;1.70;99.90
2212;DHT22;48849;48.758;9.158;2024-01-10T06:40:42;1.70;99.90
2212;DHT22;48849;48.758;9.158;2024-01-10T06:43:11;1.80;99.90
2212;DHT22;48849;48.758;9.158;2024-01-10T06:45:38;1.80;99.90
2212;DHT22;48849;48.758;9.158;2024-01-10T06:48:06;1.70;99.90
2212;DHT22;48849;48.758;9.158;2024-01-10T06:50:33;1.70;99.90
2212;DHT22;48849;48.758;9.158;2024-01-10T06:52:59;1.70;99.90
2212;DHT22;48849;48.758;9.158;2024-01-10T06:55:27;1.70;99.90
2212;DHT22;48849;48.758;9.158;2024-01-10T06:57:54;1.60;99.90
2212;DHT22;48849;48.758;9.158;2024-01-10T07:00:23;1.60;99.90
2212;DHT22;48849;48.758;9.158;2024-01-10T07:02:49;2.40;99.90
2212;DHT22;48849;48.758;9.158;2024-01-10T07:05:17;1.40;99.90
2212;DHT22;48849;48.758;9.158;2024-01-10T07:07:45;1.40;99.90
2212;DHT22;48849;48.758;9.158;2024-01-10T07:10:12;1.80;99.90
2212;DHT22;48849;48.758;9.158;2024-01-10T07:12:39;1.30;99.90
2212;DHT22;48849;48.758;9.158;2024-01-10T07:15:07;1.30;99.90
2212;DHT22;48849;48.758;9.158;2024-01-10T07:17:35;1.30;99.90
2212;DHT22;48849;48.758;9.158;2024-01-10T07:20:03;1.30;99.90
2212;DHT22;48849;48.758;9.158;2024-01-10T07:22:31;1.30;99.90
2212;DHT22;48849;48.758;9.158;2024-01-10T07:24:58;1.20;99.90
2212;DHT22;48849;48.758;9.158;2024-01-10T07:27:24;1.30;99.90
2212;DHT22;48849;48.758;9.158;2024-01-10T07:29:51;1.30;99.90
2212;DHT22;48849;48.758;9.158;2024-01-10T07:32:18;1.20;99.90
2212;DHT22;48849;48.758;9.158;2024-01-10T07:34:46;2.10;99.90
2212;DHT22;48849;48.758;9.158;2024-01-10T07:37:13;1.60;99.90
2212;DHT22;48849;48.758;9.158;2024-01-10T07:39:42;1.20;99.90
2212;DHT22;48849;48.758;9.158;2024-01-10T07:42:08;1.20;99.90
2212;DHT22;48849;48.758;9.158;2024-01-10T07:44:35;1.30;99.90
2212;DHT22;48849;48.758;9.158;2024-01-10T07:47:02;1.20;99.90
2212;DHT22;48849;48.758;9.158;2024-01-10T07:49:29;1.10;99.90
2212;DHT22;48849;48.758;9.158;2024-01-10T07:51:59;1.10;99.90
2212;DHT22;48849;48.758;9.158;2024-01-10T07:54:25;1.20;99.90
2212;DHT22;48849;48.758;9.158;2024-01-10T07:56:52;1.20;99.90
2212;DHT22;48849;48.758;9.158;2024-01-10T07:59:20;1.30;99.90
2212;DHT22;48849;48.758;9.158;2024-01-10T08:01:55;1.30;99.90
2212;DHT22;48849;48.758;9.158;2024-01-10T08:04:24;1.30;99.90
2212;DHT22;48849;48.758;9.158;2024-01-10T08:06:51;0.40;99.90
2212;DHT22;48849;48.758;9.158;2024-01-10T08:09:19;1.30;99.90
2212;DHT22;48849;48.758;9.158;2024-01-10T08:11:46;1.40;99.90
2212;DHT22;48849;48.758;9.158;2024-01-10T08:14:14;1.30;99.90
2212;DHT22;48849;48.758;9.158;2024-01-10T08:16:41;1.30;99.90
2212;DHT22;48849;48.758;9.158;2024-01-10T08:19:09;1.40;99.90
2212;DHT22;48849;48.758;9.158;2024-01-10T08:21:36;1.30;99.90
2212;DHT22;48849;48.758;9.158;2024-01-10T08:24:04;1.40;99.90
2212;DHT22;48849;48.758;9.158;2024-01-10T08:26:32;1.40;99.90
2212;DHT22;48849;48.758;9.158;2024-01-10T08:28:59;1.40;99.90
2212;DHT22;48849;48.758;9.158;2024-01-10T08:31:25;1.40;99.90
2212;DHT22;48849;48.758;9.158;2024-01-10T08:33:52;1.40;99.90
2212;DHT22;48849;48.758;9.158;2024-01-10T08:36:19;1.40;99.90
2212;DHT22;48849;48.758;9.158;2024-01-10T08:38:47;1.50;99.90
2212;DHT22;48849;48.758;9.158;2024-01-10T08:41:14;1.50;99.90
2212;DHT22;48849;48.758;9.158;2024-01-10T08:43:42;1.50;99.90
2212;DHT22;48849;48.758;9.158;2024-01-10T08:46:09;1.60;99.90
2212;DHT22;48849;48.758;9.158;2024-01-10T08:48:35;1.60;99.90
2212;DHT22;48849;48.758;9.158;2024-01-10T08:51:02;1.70;99.90
2212;DHT22;48849;48.758;9.158;2024-01-10T08:53:29;1.70;99.90
2212;DHT22;48849;48.758;9.158;2024-01-10T08:55:56;1.80;99.90
2212;DHT22;48849;48.758;9.158;2024-01-10T08:58:22;1.80;99.90
2212;DHT22;48849;48.758;9.158;2024-01-10T09:00:50;1.80;99.90
2212;DHT22;48849;48.758;9.158;2024-01-10T09:03:17;1.90;99.90
2212;DHT22;48849;48.758;9.158;2024-01-10T09:05:44;1.90;99.90
2212;DHT22;48849;48.758;9.158;2024-01-10T09:08:11;1.80;99.90
2212;DHT22;48849;48.758;9.158;2024-01-10T09:10:37;1.90;99.90
2212;DHT22;48849;48.758;9.158;2024-01-10T09:13:04;1.90;99.90
2212;DHT22;48849;48.758;9.158;2024-01-10T09:15:31;2.00;99.90
2212;DHT22;48849;48.758;9.158;2024-01-10T09:17:59;1.90;99.90
2212;DHT22;48849;48.758;9.158;2024-01-10T09:20:26;1.90;99.90
2212;DHT22;48849;48.758;9.158;2024-01-10T09:22:52;1.90;99.90
2212;DHT22;48849;48.758;9.158;2024-01-10T09:25:20;1.80;99.90
2212;DHT22;48849;48.758;9.158;2024-01-10T09:27:46;1.90;99.90
2212;DHT22;48849;48.758;9.158;2024-01-10T09:30:14;1.80;99.90
2212;DHT22;48849;48.758;9.158;2024-01-10T09:32:43;1.90;99.90
2212;DHT22;48849;48.758;9.158;2024-01-10T09:35:11;2.00;99.90
2212;DHT22;48849;48.758;9.158;2024-01-10T09:37:38;2.10;99.90
2212;DHT22;48849;48.758;9.158;2024-01-10T09:40:06;2.20;99.90
2212;DHT22;48849;48.758;9.158;2024-01-10T09:42:34;2.20;99.90
2212;DHT22;48849;48.758;9.158;2024-01-10T09:45:04;2.20;99.90
2212;DHT22;48849;48.758;9.158;2024-01-10T09:47:32;2.20;99.90
2212;DHT22;48849;48.758;9.158;2024-01-10T09:49:59;2.20;99.90
2212;DHT22;48849;48.758;9.158;2024-01-10T09:52:29;2.40;99.90
2212;DHT22;48849;48.758;9.158;2024-01-10T09:55:01;2.40;99.90
2212;DHT22;48849;48.758;9.158;2024-01-10T09:57:28;2.40;99.90
2212;DHT22;48849;48.758;9.158;2024-01-10T09:59:56;2.40;99.90
2212;DHT22;48849;48.758;9.158;2024-01-10T10:02:23;2.40;99.90
2212;DHT22;48849;48.758;9.158;2024-01-10T10:04:54;2.40;99.90
2212;DHT22;48849;48.758;9.158;2024-01-10T10:07:21;2.40;99.90
2212;DHT22;48849;48.758;9.158;2024-01-10T10:09:49;2.50;99.90
2212;DHT22;48849;48.758;9.158;2024-01-10T10:12:18;2.50;99.90
2212;DHT22;48849;48.758;9.158;2024-01-10T10:14:45;2.50;99.90
2212;DHT22;48849;48.758;9.158;2024-01-10T10:17:15;2.50;99.90
2212;DHT22;48849;48.758;9.158;2024-01-10T10:19:42;2.50;99.90
2212;DHT22;48849;48.758;9.158;2024-01-10T10:22:10;2.60;99.90
2212;DHT22;48849;48.758;9.158;2024-01-10T10:24:37;2.70;99.90
2212;DHT22;48849;48.758;9.158;2024-01-10T10:27:10;2.70;99.90
2212;DHT22;48849;48.758;9.158;2024-01-10T10:29:37;2.70;99.90
2212;DHT22;48849;48.758;9.158;2024-01-10T10:32:05;2.70;99.90
2212;DHT22;48849;48.758;9.158;2024-01-10T10:34:33;2.80;99.90
2212;DHT22;48849;48.758;9.158;2024-01-10T10:37:00;2.80;99.90
2212;DHT22;48849;48.758;9.158;2024-01-10T10:39:27;2.80;99.90
2212;DHT22;48849;48.758;9.158;2024-01-10T10:41:54;2.80;99.90
2212;DHT22;48849;48.758;9.158;2024-01-10T10:44:24;2.90;99.90
2212;DHT22;48849;48.758;9.158;2024-01-10T10:46:53;3.00;99.90
2212;DHT22;48849;48.758;9.158;2024-01-10T10:49:27;3.00;99.90
2212;DHT22;48849;48.758;9.158;2024-01-10T10:51:58;3.00;99.90
2212;DHT22;48849;48.758;9.158;2024-01-10T10:54:28;3.10;99.90
2212;DHT22;48849;48.758;9.158;2024-01-10T10:56:57;3.10;99.90
2212;DHT22;48849;48.758;9.158;2024-01-10T10:59:27;3.10;99.90
2212;DHT22;48849;48.758;9.158;2024-01-10T11:01:55;3.10;99.90
2212;DHT22;48849;48.758;9.158;2024-01-10T11:04:22;3.20;99.90
2212;DHT22;48849;48.758;9.158;2024-01-10T11:06:49;3.20;99.90
2212;DHT22;48849;48.758;9.158;2024-01-10T11:09:18;3.20;99.90
2212;DHT22;48849;48.758;9.158;2024-01-10T11:11:57;3.20;99.90
2212;DHT22;48849;48.758;9.158;2024-01-10T11:14:38;3.20;99.90
2212;DHT22;48849;48.758;9.158;2024-01-10T11:17:30;3.30;99.90
2212;DHT22;48849;48.758;9.158;2024-01-10T11:20:20;3.30;99.90
2212;DHT22;48849;48.758;9.158;2024-01-10T11:23:06;3.30;99.90
2212;DHT22;48849;48.758;9.158;2024-01-10T11:25:37;3.40;99.90
2212;DHT22;48849;48.758;9.158;2024-01-10T11:28:04;3.40;99.90
2212;DHT22;48849;48.758;9.158;2024-01-10T11:30:37;3.40;99.90
2212;DHT22;48849;48.758;9.158;2024-01-10T11:33:18;3.40;99.90
2212;DHT22;48849;48.758;9.158;2024-01-10T11:36:07;3.50;99.90
2212;DHT22;48849;48.758;9.158;2024-01-10T11:38:38;3.50;99.90
2212;DHT22;48849;48.758;9.158;2024-01-10T11:41:05;3.50;99.90
2212;DHT22;48849;48.758;9.158;2024-01-10T11:43:33;3.50;99.90
2212;DHT22;48849;48.758;9.158;2024-01-10T11:46:02;3.50;99.90
2212;DHT22;48849;48.758;9.158;2024-01-10T11:48:31;3.60;99.90
2212;DHT22;48849;48.758;9.158;2024-01-10T11:50:59;3.60;99.90
2212;DHT22;48849;48.758;9.158;2024-01-10T11:53:40;3.60;99.90
2212;DHT22;48849;48.758;9.158;2024-01-10T11:56:11;3.60;99.90
2212;DHT22;48849;48.758;9.158;2024-01-10T11:58:53;3.60;99.90
2212;DHT22;48849;48.758;9.158;2024-01-10T12:01:22;3.70;99.90
2212;DHT22;48849;48.758;9.158;2024-01-10T12:03:51;3.70;99.90
2212;DHT22;48849;48.758;9.158;2024-01-10T12:06:20;3.70;99.90
2212;DHT22;48849;48.758;9.158;2024-01-10T12:08:48;3.80;99.90
2212;DHT22;48849;48.758;9.158;2024-01-10T12:11:14;3.80;99.90
2212;DHT22;48849;48.758;9.158;2024-01-10T12:13:42;3.80;99.90
2212;DHT22;48849;48.758;9.158;2024-01-10T12:16:09;3.70;99.90
2212;DHT22;48849;48.758;9.158;2024-01-10T12:18:37;3.80;99.90
2212;DHT22;48849;48.758;9.158;2024-01-10T12:21:04;4.70;99.90
2212;DHT22;48849;48.758;9.158;2024-01-10T12:23:31;3.80;99.90
2212;DHT22;48849;48.758;9.158;2024-01-10T12:26:01;3.80;99.90
2212;DHT22;48849;48.758;9.158;2024-01-10T12:28:28;3.80;99.90
2212;DHT22;48849;48.758;9.158;2024-01-10T12:30:55;3.80;99.90
2212;DHT22;48849;48.758;9.158;2024-01-10T12:33:22;3.80;99.90
2212;DHT22;48849;48.758;9.158;2024-01-10T12:36:04;3.80;99.90
2212;DHT22;48849;48.758;9.158;2024-01-10T12:38:33;3.90;99.90
2212;DHT22;48849;48.758;9.158;2024-01-10T12:40:59;3.90;99.90
2212;DHT22;48849;48.758;9.158;2024-01-10T12:43:27;3.90;99.90
2212;DHT22;48849;48.758;9.158;2024-01-10T12:46:03;3.90;99.90
2212;DHT22;48849;48.758;9.158;2024-01-10T12:48:30;3.90;99.90
2212;DHT22;48849;48.758;9.158;2024-01-10T12:50:59;3.90;99.90
2212;DHT22;48849;48.758;9.158;2024-01-10T12:53:29;3.90;99.90
2212;DHT22;48849;48.758;9.158;2024-01-10T12:55:56;4.00;99.90
2212;DHT22;48849;48.758;9.158;2024-01-10T12:58:24;4.00;99.90
2212;DHT22;48849;48.758;9.158;2024-01-10T13:00:50;4.00;99.90
2212;DHT22;48849;48.758;9.158;2024-01-10T13:03:17;4.00;99.90
2212;DHT22;48849;48.758;9.158;2024-01-10T13:05:44;4.10;99.90
2212;DHT22;48849;48.758;9.158;2024-01-10T13:08:11;4.00;99.90
2212;DHT22;48849;48.758;9.158;2024-01-10T13:10:39;5.40;99.90
2212;DHT22;48849;48.758;9.158;2024-01-10T13:13:06;4.00;99.90
2212;DHT22;48849;48.758;9.158;2024-01-10T13:15:32;4.00;99.90
2212;DHT22;48849;48.758;9.158;2024-01-10T13:17:59;4.00;99.90
2212;DHT22;48849;48.758;9.158;2024-01-10T13:20:26;4.00;99.90
2212;DHT22;48849;48.758;9.158;2024-01-10T13:22:53;4.00;99.90
2212;DHT22;48849;48.758;9.158;2024-01-10T13:25:19;3.90;99.90
2212;DHT22;48849;48.758;9.158;2024-01-10T13:27:49;4.00;99.90
2212;DHT22;48849;48.758;9.158;2024-01-10T13:30:18;4.00;99.90
2212;DHT22;48849;48.758;9.158;2024-01-10T13:32:46;3.90;99.90
2212;DHT22;48849;48.758;9.158;2024-01-10T13:35:13;5.20;99.90
2212;DHT22;48849;48.758;9.158;2024-01-10T13:37:41;4.00;99.90
2212;DHT22;48849;48.758;9.158;2024-01-10T13:40:09;3.90;99.90
2212;DHT22;48849;48.758;9.158;2024-01-10T13:42:38;3.90;99.90
2212;DHT22;48849;48.758;9.158;2024-01-10T13:45:07;4.10;99.90
2212;DHT22;48849;48.758;9.158;2024-01-10T13:47:36;3.90;99.90
2212;DHT22;48849;48.758;9.158;2024-01-10T13:50:04;3.90;99.90
2212;DHT22;48849;48.758;9.158;2024-01-10T13:52:31;3.90;99.90
2212;DHT22;48849;48.758;9.158;2024-01-10T13:54:58;3.90;99.90
2212;DHT22;48849;48.758;9.158;2024-01-10T13:57:25;3.90;99.90
2212;DHT22;48849;48.758;9.158;2024-01-10T13:59:52;3.80;99.90
2212;DHT22;48849;48.758;9.158;2024-01-10T14:02:22;3.80;99.90
2212;DHT22;48849;48.758;9.158;2024-01-10T14:04:49;3.80;99.90
2212;DHT22;48849;48.758;9.158;2024-01-10T14:07:16;4.10;99.90
2212;DHT22;48849;48.758;9.158;2024-01-10T14:09:43;3.80;99.90
2212;DHT22;48849;48.758;9.158;2024-01-10T14:12:10;3.80;99.90
2212;DHT22;48849;48.758;9.158;2024-01-10T14:14:37;3.80;99.90
2212;DHT22;48849;48.758;9.158;2024-01-10T14:17:04;3.80;99.90
2212;DHT22;48849;48.758;9.158;2024-01-10T14:19:33;3.80;99.90
2212;DHT22;48849;48.758;9.158;2024-01-10T14:21:59;3.90;99.90
2212;DHT22;48849;48.758;9.158;2024-01-10T14:24:26;3.90;99.90
2212;DHT22;48849;48.758;9.158;2024-01-10T14:26:53;3.90;99.90
2212;DHT22;48849;48.758;9.158;2024-01-10T14:29:20;3.90;99.90
2212;DHT22;48849;48.758;9.158;2024-01-10T14:31:47;3.90;99.90
2212;DHT22;48849;48.758;9.158;2024-01-10T14:34:14;3.90;99.90
2212;DHT22;48849;48.758;9.158;2024-01-10T14:36:42;3.90;99.90
2212;DHT22;48849;48.758;9.158;2024-01-10T14:39:09;3.90;99.90
2212;DHT22;48849;48.758;9.158;2024-01-10T14:41:38;4.00;99.90
2212;DHT22;48849;48.758;9.158;2024-01-10T14:44:05;4.00;99.90
2212;DHT22;48849;48.758;9.158;2024-01-10T14:46:31;4.00;99.90
2212;DHT22;48849;48.758;9.158;2024-01-10T14:48:58;3.90;99.90
2212;DHT22;48849;48.758;9.158;2024-01-10T14:51:25;3.90;99.90
2212;DHT22;48849;48.758;9.158;2024-01-10T14:53:54;3.80;99.90
2212;DHT22;48849;48.758;9.158;2024-01-10T14:56:20;3.90;99.90
2212;DHT22;48849;48.758;9.158;2024-01-10T14:58:48;3.90;99.90
2212;DHT22;48849;48.758;9.158;2024-01-10T15:01:16;3.90;99.90
2212;DHT22;48849;48.758;9.158;2024-01-10T15:03:43;3.80;99.90
2212;DHT22;48849;48.758;9.158;2024-01-10T15:06:09;3.80;99.90
2212;DHT22;48849;48.758;9.158;2024-01-10T15:08:36;3.80;99.90
2212;DHT22;48849;48.758;9.158;2024-01-10T15:11:04;3.80;99.90
2212;DHT22;48849;48.758;9.158;2024-01-10T15:13:31;3.80;99.90
2212;DHT22;48849;48.758;9.158;2024-01-10T15:15:58;4.30;99.90
2212;DHT22;48849;48.758;9.158;2024-01-10T15:18:24;3.90;99.90
2212;DHT22;48849;48.758;9.158;2024-01-10T15:20:51;3.90;99.90
2212;DHT22;48849;48.758;9.158;2024-01-10T15:23:18;3.80;99.90
2212;DHT22;48849;48.758;9.158;2024-01-10T15:25:45;3.80;99.90
2212;DHT22;48849;48.758;9.158;2024-01-10T15:28:14;3.80;99.90
2212;DHT22;48849;48.758;9.158;2024-01-10T15:30:40;3.80;99.90
2212;DHT22;48849;48.758;9.158;2024-01-10T15:33:07;3.80;99.90
2212;DHT22;48849;48.758;9.158;2024-01-10T15:35:36;3.80;99.90
2212;DHT22;48849;48.758;9.158;2024-01-10T15:38:03;3.80;99.90
2212;DHT22;48849;48.758;9.158;2024-01-10T15:40:30;3.70;99.90
2212;DHT22;48849;48.758;9.158;2024-01-10T15:42:56;3.70;99.90
2212;DHT22;48849;48.758;9.158;2024-01-10T15:45:24;3.70;99.90
2212;DHT22;48849;48.758;9.158;2024-01-10T15:47:51;3.60;99.90
2212;DHT22;48849;48.758;9.158;2024-01-10T15:50:18;3.60;99.90
2212;DHT22;48849;48.758;9.158;2024-01-10T15:52:45;3.60;99.90
2212;DHT22;48849;48.758;9.158;2024-01-10T15:55:14;3.50;99.90
2212;DHT22;48849;48.758;9.158;2024-01-10T15:57:41;3.50;99.90
2212;DHT22;48849;48.758;9.158;2024-01-10T16:00:13;3.50;99.90
2212;DHT22;48849;48.758;9.158;2024-01-10T16:02:41;3.40;99.90
2212;DHT22;48849;48.758;9.158;2024-01-10T16:05:08;3.40;99.90